Aérodrome :
LOGIN :

S'inscrire | Disclaimer

   EN    FR    IT 

 










Légende :    VFR   VFR Marginal   IFR   IFR Intensif   IFR Très Intensif
Visi : 
Plafond : 
>= 8 km
>= 3000ft
5 à 8 km
1000 à 3000 ft
1500m à 5 km
500 à 1000 ft
800 à 1500m
200 à 500 ft
< 800m
< 200 ft
Symboles :   Orages  Brouillard  Fortes neiges  Fortes précipitations  Vent > 20 kt
SIGMETs :   Divers  Orages  Givrage  Turbulence  Onde Orograph.  Cendres Volcan.






- Altitude de l'aérodrome : 1036 ft
- Code IATA : CLJ


LRCL - Cluj-Napoca International

DERNIER METAR :
  • 161800Z 04003KT CAVOK 03/M02 Q1029

METARs EXPIRÉS :
  • 161730Z 06003KT CAVOK 03/M02 Q1029
  • 161700Z 08005KT CAVOK 03/M02 Q1029
  • 161630Z 08005KT CAVOK 04/M02 Q1029
  • 161600Z 09004KT CAVOK 06/M01 Q1029
  • 161530Z 13005KT 100V160 CAVOK 08/M01 Q1029

TAF TAF LRCL
Valide du 16 à 18h jusqu'au 17 à 03h UTC


161700Z 1618/1703 VRB04KT CAVOK
BECMG 1620/1622 5000 BR
BECMG 1622/1624 1500 BR BKN005
TEMPO 1700/1703 0600 FZFG VV001



MET'MAP, la Météo Aéronautique d'un coup d'oeil ! - Copyright ORBIFLY Décembre 2007 - Disclaimer

ORBIFLY MET'MAP TEAM :

Programmation & Développement : Alexandra Zaïnal
Sur une idée originale de : Baudouin d'Aumeries
Assistance à la programmation : Marc-Olivier Méhu
Soutien technique & logistique : Manuel Goepfert

Contact : metmap@orbifly.com




SOURCES & CREDITS :

   NOAA